Latest Weather Observations for Hartz Mountains

IDT60801

Issued at 9:02 am EST Thursday 25 August 2016 (issued every 30 minutes, with the page automatically refreshed every 10 minutes)

About weather observations | Map of weather stations | Latest weather observations for TAS | Other Formats
Station Details ID: 094191 Name: HARTZ MOUNTAIN (KEOGHS PIMPLE) Lat: -43.20 Lon: 146.77 Height: 831.0 m
Data from the previous 72 hours. | See also: Recent months at Hartz Mountains
Date/Time
EST
Temp
°C
App
Temp
°C
Dew
Point
°C
Rel
Hum
%
Delta-T
°C
Wind Press
QNH
hPa
Press
MSL
hPa
Rain since
9am
mm
Dir  Spd
km/h
Gust
km/h
Spd
kts
Gust
kts
25/09:00am 1.8 -5.7 1.4 97 0.2 WSW 30 43 16 23 - - 1.6
25/08:30am 1.8 -4.5 1.7 99 0.0 WSW 24 32 13 17 - - 1.6
25/08:00am 0.8 -6.4 0.7 99 0.0 WSW 28 35 15 19 - - 1.0
25/07:30am 0.9 -6.3 0.6 98 0.1 SW 28 44 15 24 - - 1.0
25/07:00am 0.6 -6.2 0.6 100 0.0 WSW 26 33 14 18 - - 1.0
25/06:30am 0.6 -7.0 0.6 100 0.0 SW 30 39 16 21 - - 1.0
25/06:00am 0.3 -7.0 0.3 100 0.0 WSW 28 35 15 19 - - 1.0
25/05:30am 0.2 -7.8 0.2 100 0.0 WSW 32 37 17 20 - - 1.0
25/05:00am 0.5 -7.5 0.5 100 0.0 WSW 32 41 17 22 - - 1.0
25/04:30am 0.4 -8.6 0.4 100 0.0 WSW 37 44 20 24 - - 1.0
25/04:00am 0.5 -8.8 0.5 100 0.0 WSW 39 50 21 27 - - 1.0
25/03:30am 0.4 -8.9 0.4 100 0.0 WSW 39 48 21 26 - - 1.0
25/03:00am 0.3 -9.4 0.3 100 0.0 WSW 41 50 22 27 - - 1.0
25/02:30am 0.3 -10.0 0.3 100 0.0 WSW 44 54 24 29 - - 1.0
25/02:00am 0.2 -9.5 0.2 100 0.0 WSW 41 48 22 26 - - 1.0
25/01:30am 0.1 -9.3 0.1 100 0.0 WSW 39 48 21 26 - - 1.0
25/01:00am 0.1 -8.9 0.1 100 0.0 WSW 37 48 20 26 - - 1.0
25/12:30am 0.1 -8.9 0.1 100 0.0 WSW 37 46 20 25 - - 1.0
25/12:00am 0.1 -9.3 0.1 100 0.0 WSW 39 46 21 25 - - 1.0
 
Date/Time
EST
Temp
°C
App
Temp
°C
Dew
Point
°C
Rel
Hum
%
Delta-T
°C
Wind Press
QNH
hPa
Press
MSL
hPa
Rain since
9am
mm
Dir  Spd
km/h
Gust
km/h
Spd
kts
Gust
kts
24/11:30pm 0.1 -8.5 0.1 100 0.0 WSW 35 41 19 22 - - 1.0
24/11:00pm 0.0 -8.1 0.0 100 0.0 WSW 32 39 17 21 - - 1.0
24/10:30pm 0.1 -8.1 0.1 100 0.0 WSW 33 41 18 22 - - 1.0
24/10:00pm 0.1 -7.2 0.1 100 0.0 WSW 28 37 15 20 - - 1.0
24/09:30pm 0.2 -6.3 0.2 100 0.0 WSW 24 33 13 18 - - 1.0
24/09:00pm 0.3 -8.3 0.3 100 0.0 WSW 35 46 19 25 - - 1.0
24/08:30pm 0.3 -7.3 0.3 100 0.0 WSW 30 35 16 19 - - 1.0
24/08:00pm 0.2 -6.7 0.1 99 0.0 WSW 26 35 14 19 - - 1.0
24/07:30pm 0.3 -6.2 0.0 98 0.1 WSW 24 33 13 18 - - 1.0
24/07:00pm 0.3 -8.0 0.0 98 0.1 W 33 44 18 24 - - 1.0
24/06:30pm 0.4 -9.0 0.1 98 0.1 W 39 50 21 27 - - 1.0
24/06:00pm 0.6 -6.3 0.3 98 0.1 W 26 37 14 20 - - 0.8
24/05:30pm 0.8 -5.3 0.5 98 0.1 WSW 22 35 12 19 - - 0.8
24/05:00pm 0.9 -4.8 0.5 97 0.2 W 20 32 11 17 - - 0.8
24/04:38pm 1.1 -6.1 0.5 96 0.2 W 28 46 15 25 - - 0.8
24/04:30pm 1.1 -6.1 0.4 95 0.3 W 28 41 15 22 - - 0.8
24/04:05pm 1.6 -5.6 0.4 92 0.5 W 28 46 15 25 - - 0.8
24/04:00pm 1.7 -6.4 0.7 93 0.4 W 33 48 18 26 - - 0.8
24/03:30pm 1.6 -5.9 0.9 95 0.3 W 30 43 16 23 - - 0.8
24/03:00pm 1.9 -4.4 1.3 96 0.2 W 24 39 13 21 - - 0.8
24/02:30pm 1.7 -6.2 0.8 94 0.4 WSW 32 37 17 20 - - 0.8
24/02:00pm 1.5 -6.5 0.6 94 0.4 W 32 41 17 22 - - 0.8
24/01:30pm 2.1 -5.0 1.5 96 0.2 W 28 39 15 21 - - 0.8
24/01:08pm 2.5 -5.2 2.1 97 0.2 WSW 32 50 17 27 - - 0.8
24/01:00pm 2.1 -5.9 1.8 98 0.1 WSW 33 44 18 24 - - 0.8
24/12:37pm 1.5 -6.0 1.1 97 0.2 W 30 48 16 26 - - 0.8
24/12:30pm 1.3 -5.5 0.9 97 0.2 WSW 26 37 14 20 - - 0.8
24/12:00pm 1.1 -6.8 0.8 98 0.1 WSW 32 43 17 23 - - 0.6
24/11:30am 1.3 -5.9 0.7 96 0.2 WSW 28 37 15 20 - - 0.4
24/11:00am 2.0 -4.7 1.7 98 0.1 W 26 39 14 21 - - 0.0
24/10:30am 1.9 -2.3 1.6 98 0.1 W 13 28 7 15 - - 0.0
24/10:00am 1.6 -3.4 1.3 98 0.1 W 17 24 9 13 - - 0.0
24/09:30am 1.3 -3.0 1.2 99 0.0 W 13 22 7 12 - - 0.0
24/09:00am 0.7 -5.4 0.6 99 0.0 WSW 22 33 12 18 - - 3.6
24/08:30am 0.5 -4.7 0.4 99 0.0 W 17 26 9 14 - - 3.2
24/08:00am 0.3 -4.9 0.2 99 0.0 W 17 28 9 15 - - 2.8
24/07:30am 0.1 -7.2 0.0 99 0.0 W 28 44 15 24 - - 2.6
24/07:00am 0.1 -7.2 0.0 99 0.0 WSW 28 41 15 22 - - 2.6
24/06:30am 0.3 -8.7 0.2 99 0.0 W 37 48 20 26 - - 2.6
24/06:00am 0.2 -9.2 0.1 99 0.0 WSW 39 54 21 29 - - 2.6
24/05:47am 0.1 -7.6 0.1 100 0.0 W 30 48 16 26 - - 2.6
24/05:30am 0.1 -6.4 0.1 100 0.0 W 24 33 13 18 - - 2.6
24/05:00am 0.2 -7.5 0.1 99 0.0 W 30 39 16 21 - - 2.6
24/04:30am 0.2 -5.9 0.1 99 0.0 W 22 32 12 17 - - 2.6
24/04:00am 0.3 -7.3 0.3 100 0.0 WSW 30 43 16 23 - - 2.6
24/03:30am 0.3 -7.7 0.2 99 0.0 WSW 32 43 17 23 - - 2.6
24/03:00am 0.3 -6.6 0.2 99 0.0 W 26 35 14 19 - - 2.6
24/02:38am 0.4 -8.6 0.1 98 0.1 WSW 37 56 20 30 - - 2.4
24/02:30am 0.5 -8.8 0.4 99 0.0 WSW 39 56 21 30 - - 2.4
24/02:11am 0.4 -7.8 0.3 99 0.0 WSW 33 57 18 31 - - 2.4
24/02:00am 0.2 -7.5 0.1 99 0.0 W 30 46 16 25 - - 2.4
24/01:58am 0.3 -7.0 0.2 99 0.0 W 28 46 15 25 - - 2.4
24/01:30am 0.4 -7.8 0.3 99 0.0 WSW 33 46 18 25 - - 2.4
24/01:00am 0.4 -8.9 0.3 99 0.0 WSW 39 54 21 29 - - 2.4
24/12:58am 0.4 -8.2 0.3 99 0.0 W 35 54 19 29 - - 2.4
24/12:30am 0.4 -8.2 0.3 99 0.0 WSW 35 46 19 25 - - 2.4
24/12:00am 0.6 -8.4 0.3 98 0.1 W 37 50 20 27 - - 2.4
 
Date/Time
EST
Temp
°C
App
Temp
°C
Dew
Point
°C
Rel
Hum
%
Delta-T
°C
Wind Press
QNH
hPa
Press
MSL
hPa
Rain since
9am
mm
Dir  Spd
km/h
Gust
km/h
Spd
kts
Gust
kts
23/11:48pm 0.6 -9.5 0.3 98 0.1 WSW 43 61 23 33 - - 2.4
23/11:30pm 0.6 -7.4 0.5 99 0.0 W 32 44 17 24 - - 2.2
23/11:00pm 0.8 -7.2 0.4 97 0.2 W 32 50 17 27 - - 2.0
23/10:30pm 0.7 -7.3 0.6 99 0.0 WSW 32 54 17 29 - - 2.0
23/10:00pm 1.0 -6.5 0.9 99 0.0 W 30 44 16 24 - - 1.8
23/09:37pm 1.0 -7.9 1.0 100 0.0 W 37 59 20 32 - - 1.8
23/09:30pm 0.9 -7.6 0.9 100 0.0 W 35 50 19 27 - - 1.8
23/09:19pm 1.0 -6.9 1.0 100 0.0 WSW 32 52 17 28 - - 1.8
23/09:00pm 1.0 -5.8 1.0 100 0.0 WNW 26 39 14 21 - - 1.4
23/08:30pm 1.1 -5.3 1.1 100 0.0 WNW 24 37 13 20 - - 1.2
23/08:08pm 1.1 -6.8 1.1 100 0.0 W 32 52 17 28 - - 1.2
23/08:00pm 1.1 -6.4 1.1 100 0.0 W 30 44 16 24 - - 1.2
23/07:30pm 1.2 -5.5 1.2 100 0.0 W 26 37 14 20 - - 1.2
23/07:00pm 1.2 -5.5 1.2 100 0.0 W 26 41 14 22 - - 1.2
23/06:30pm 1.1 -6.1 1.0 99 0.0 WNW 28 44 15 24 - - 1.0
23/06:00pm 1.0 -5.0 0.9 99 0.0 W 22 33 12 18 - - 1.0
23/05:30pm 0.8 -6.4 0.5 98 0.1 W 28 43 15 23 - - 1.0
23/05:00pm 1.1 -6.1 0.7 97 0.2 W 28 41 15 22 - - 0.8
23/04:30pm 1.0 -8.0 0.3 95 0.3 W 37 48 20 26 - - 0.8
23/04:27pm 1.1 -8.6 0.4 95 0.3 W 41 59 22 32 - - 0.8
23/04:00pm 1.4 -7.9 0.8 96 0.2 W 39 50 21 27 - - 0.8
23/03:30pm 2.3 -5.7 1.6 95 0.3 WSW 33 52 18 28 - - 0.6
23/03:07pm 1.9 -7.3 1.0 94 0.4 W 39 59 21 32 - - 0.6
23/03:00pm 2.2 -7.3 1.6 96 0.2 W 41 54 22 29 - - 0.6
23/02:33pm 2.0 -5.5 1.3 95 0.3 W 30 50 16 27 - - 0.6
23/02:30pm 2.2 -4.5 1.3 94 0.4 W 26 39 14 21 - - 0.6
23/02:00pm 2.4 -3.1 2.0 97 0.2 W 20 43 11 23 - - 0.6
23/01:47pm 1.6 -6.3 0.9 95 0.3 WSW 32 50 17 27 - - 0.6
23/01:30pm 2.2 -5.8 1.8 97 0.2 WSW 33 50 18 27 - - 0.6
23/01:10pm 2.3 -6.1 1.7 96 0.2 WNW 35 54 19 29 - - 0.6
23/01:00pm 2.2 -6.2 1.6 96 0.2 W 35 52 19 28 - - 0.6
23/12:37pm 1.4 -6.5 0.8 96 0.2 W 32 57 17 31 - - 0.6
23/12:30pm 2.2 -5.2 1.8 97 0.2 WSW 30 43 16 23 - - 0.2
23/12:06pm 2.9 -5.4 2.3 96 0.3 W 35 54 19 29 - - 0.0
23/12:00pm 2.7 -6.4 2.1 96 0.2 W 39 54 21 29 - - 0.0
23/11:33am 3.3 -4.0 2.7 96 0.3 W 30 48 16 26 - - 0.0
23/11:30am 2.9 -5.0 2.0 94 0.4 W 33 50 18 27 - - 0.0
23/11:00am 3.0 -5.6 2.4 96 0.3 W 37 56 20 30 - - 0.0
23/10:46am 3.1 -4.8 2.5 96 0.3 W 33 54 18 29 - - 0.0
23/10:41am 2.7 -4.6 2.3 97 0.2 W 30 46 16 25 - - 0.0
23/10:36am 2.6 -4.4 2.2 97 0.2 WNW 28 46 15 25 - - 0.0
23/10:30am 2.5 -4.1 2.1 97 0.2 WNW 26 39 14 21 - - 0.0
23/10:11am 2.1 -5.7 1.7 97 0.2 W 32 52 17 28 - - 0.0
23/10:00am 2.1 -5.3 1.8 98 0.1 W 30 46 16 25 - - 0.0
23/09:42am 1.7 -5.7 1.6 99 0.0 W 30 48 16 26 - - 0.0
23/09:30am 1.4 -6.5 1.3 99 0.0 WSW 32 44 17 24 - - 0.0
23/09:00am 1.7 -6.3 1.7 100 0.0 W 33 52 18 28 - - 1.6
23/08:59am 1.6 -6.4 1.6 100 0.0 W 33 52 18 28 - - 1.6
23/08:30am 1.0 -7.5 1.0 100 0.0 W 35 50 19 27 - - 1.6
23/08:04am 0.9 -8.7 0.9 100 0.0 W 41 59 22 32 - - 1.6
23/08:00am 0.8 -8.5 0.8 100 0.0 W 39 50 21 27 - - 1.6
23/07:54am 0.7 -9.0 0.7 100 0.0 W 41 59 22 32 - - 1.6
23/07:30am 0.6 -9.1 0.6 100 0.0 W 41 56 22 30 - - 1.6
23/07:00am 0.4 -8.6 0.4 100 0.0 W 37 46 20 25 - - 1.6
23/06:30am 0.4 -9.3 0.4 100 0.0 W 41 56 22 30 - - 1.6
23/06:05am 0.4 -8.9 0.4 100 0.0 W 39 59 21 32 - - 1.6
23/06:00am 0.4 -9.3 0.4 100 0.0 W 41 50 22 27 - - 1.6
23/05:30am 0.3 -9.4 0.3 100 0.0 W 41 59 22 32 - - 1.6
23/05:24am 0.3 -9.4 0.3 100 0.0 W 41 59 22 32 - - 1.6
23/05:00am 0.3 -10.0 0.3 100 0.0 WSW 44 59 24 32 - - 1.6
23/04:30am 0.3 -10.4 0.3 100 0.0 WSW 46 61 25 33 - - 1.6
23/04:00am 0.3 -9.8 0.3 100 0.0 W 43 61 23 33 - - 1.6
23/03:59am 0.3 -9.8 0.3 100 0.0 W 43 61 23 33 - - 1.6
23/03:30am 0.3 -9.8 0.3 100 0.0 WSW 43 56 23 30 - - 1.6
23/03:00am 0.3 -9.4 0.3 100 0.0 W 41 54 22 29 - - 1.6
23/02:30am 0.3 -8.7 0.3 100 0.0 W 37 57 20 31 - - 1.6
23/02:22am 0.3 -8.7 0.3 100 0.0 W 37 57 20 31 - - 1.6
23/02:00am 0.3 -7.3 0.3 100 0.0 W 30 43 16 23 - - 1.6
23/01:30am 0.3 -7.9 0.3 100 0.0 W 33 56 18 30 - - 1.6
23/01:00am 0.3 -7.3 0.3 100 0.0 W 30 48 16 26 - - 1.6
23/12:41am 0.3 -7.3 0.3 100 0.0 WNW 30 50 16 27 - - 1.6
23/12:30am 0.3 -7.0 0.3 100 0.0 W 28 43 15 23 - - 1.6
23/12:00am 0.3 -7.7 0.3 100 0.0 WNW 32 44 17 24 - - 1.6
 
Date/Time
EST
Temp
°C
App
Temp
°C
Dew
Point
°C
Rel
Hum
%
Delta-T
°C
Wind Press
QNH
hPa
Press
MSL
hPa
Rain since
9am
mm
Dir  Spd
km/h
Gust
km/h
Spd
kts
Gust
kts
22/11:30pm 0.4 -6.8 0.4 100 0.0 WNW 28 41 15 22 - - 1.6
22/11:00pm 0.3 -7.3 0.3 100 0.0 W 30 44 16 24 - - 1.6
22/10:30pm 0.3 -7.0 0.3 100 0.0 W 28 43 15 23 - - 1.6
22/10:00pm 0.3 -7.7 0.3 100 0.0 W 32 46 17 25 - - 1.6
22/09:30pm 0.4 -9.3 0.4 100 0.0 W 41 50 22 27 - - 1.6
22/09:00pm 0.3 -10.4 0.3 100 0.0 W 46 67 25 36 - - 1.4
22/08:51pm 0.3 -10.8 0.3 100 0.0 W 48 67 26 36 - - 1.4
22/08:30pm 0.3 -9.0 0.3 100 0.0 W 39 56 21 30 - - 1.4
22/08:04pm 0.4 -8.6 0.4 100 0.0 W 37 56 20 30 - - 1.2
22/08:00pm 0.3 -9.0 0.3 100 0.0 W 39 56 21 30 - - 1.2
22/07:34pm 0.4 -9.9 0.4 100 0.0 WSW 44 63 24 34 - - 1.2
22/07:30pm 0.4 -9.7 0.4 100 0.0 WSW 43 59 23 32 - - 1.2
22/07:00pm 0.1 -9.7 0.1 100 0.0 W 41 50 22 27 - - 1.2
22/06:51pm 0.1 -7.6 0.1 100 0.0 W 30 46 16 25 - - 1.2
22/06:30pm 0.0 -5.2 -0.1 99 0.0 W 17 28 9 15 - - 1.2
22/06:00pm 0.4 -7.2 0.3 99 0.0 WNW 30 41 16 22 - - 1.2
22/05:30pm 0.5 -7.7 0.4 99 0.0 WNW 33 54 18 29 - - 1.2
22/05:00pm 0.5 -7.7 0.2 98 0.1 W 33 52 18 28 - - 1.2
22/04:43pm 0.6 -6.7 0.3 98 0.1 W 28 46 15 25 - - 1.0
22/04:30pm 0.8 -7.2 0.5 98 0.1 WNW 32 48 17 26 - - 1.0
22/04:04pm 1.2 -6.1 0.2 93 0.4 W 28 46 15 25 - - 1.0
22/04:00pm 1.3 -5.2 0.3 93 0.4 W 24 37 13 20 - - 1.0
22/03:30pm 1.7 -4.7 1.1 96 0.2 WSW 24 37 13 20 - - 1.0
22/03:00pm 1.0 -7.0 0.4 96 0.2 W 32 59 17 32 - - 1.0
22/02:30pm 1.8 -6.0 1.5 98 0.1 W 32 50 17 27 - - 1.0
22/02:02pm 0.5 -6.8 -0.2 95 0.3 W 28 46 15 25 - - 1.0
22/02:00pm 0.7 -7.0 0.1 96 0.2 W 30 46 16 25 - - 1.0
22/01:51pm 1.1 -6.1 0.5 96 0.2 W 28 57 15 31 - - 1.0
22/01:30pm 0.9 -7.1 0.6 98 0.1 W 32 44 17 24 - - 0.8
22/01:19pm 0.1 -7.2 -0.3 97 0.2 WNW 28 48 15 26 - - 0.2
22/01:00pm 0.9 -5.9 0.5 97 0.2 W 26 39 14 21 - - 0.2
22/12:30pm 1.0 -7.0 0.3 95 0.3 W 32 50 17 27 - - 0.0
22/12:23pm 1.2 -6.0 0.5 95 0.3 W 28 50 15 27 - - 0.0
22/12:00pm 3.3 -2.7 1.0 85 0.9 WNW 22 41 12 22 - - 0.0
22/11:30am 3.6 -5.2 1.3 85 0.9 WNW 37 61 20 33 - - 0.0
22/11:00am 2.6 -5.6 0.3 85 0.9 W 33 52 18 28 - - 0.0
22/10:35am 2.1 -6.1 0.3 88 0.7 WNW 33 56 18 30 - - 0.0
22/10:30am 2.5 -5.1 0.4 86 0.8 W 30 46 16 25 - - 0.0
22/10:00am 2.0 -5.5 1.0 93 0.4 W 30 48 16 26 - - 0.0
22/09:40am 0.9 -6.4 -0.1 93 0.4 W 28 46 15 25 - - 0.0
22/09:30am 1.4 -4.7 0.4 93 0.4 WNW 22 35 12 19 - - 0.0
22/09:13am 1.0 -7.1 -0.1 92 0.4 W 32 50 17 27 - - 0.0

Other Formats:

Comma delimited format used in spreadsheet applications
http://www.bom.gov.au/fwo/IDT60801/IDT60801.94977.axf

JavaScript Object Notation format (JSON) in row-major order
http://www.bom.gov.au/fwo/IDT60801/IDT60801.94977.json